Aviation Digital Data Service (ADDS)

Output produced by TAFs form (1330 UTC 29 July 2015)
found at http://www.aviationweather.gov/adds/tafs/
 
KDEN 291253Z 16003KT 10SM SCT150 BKN180 BKN220 16/07 A3032 RMK AO2 SLP192 T01610067
KDEN 291121Z 2912/3018 16012KT P6SM SCT150 
     FM291900 15013G21KT P6SM SCT100 
     FM300100 17011KT P6SM SCT100 BKN120 
     FM300700 20011KT P6SM SCT120